sensor_id;sensor_type;location;lat;lon;timestamp;P1;durP1;ratioP1;P2;durP2;ratioP2
34988;SDS011;21192;40.182;44.516;2023-07-13T00:01:50;8.02;;;3.50;;
34988;SDS011;21192;40.182;44.516;2023-07-13T00:04:20;9.77;;;3.40;;
34988;SDS011;21192;40.182;44.516;2023-07-13T00:06:48;7.00;;;3.60;;
34988;SDS011;21192;40.182;44.516;2023-07-13T00:09:15;8.05;;;3.80;;
34988;SDS011;21192;40.182;44.516;2023-07-13T00:11:42;11.30;;;4.85;;
34988;SDS011;21192;40.182;44.516;2023-07-13T00:14:10;13.52;;;6.18;;
34988;SDS011;21192;40.182;44.516;2023-07-13T00:16:37;13.88;;;6.03;;
34988;SDS011;21192;40.182;44.516;2023-07-13T00:19:05;17.48;;;7.57;;
34988;SDS011;21192;40.182;44.516;2023-07-13T00:21:31;16.05;;;7.63;;
34988;SDS011;21192;40.182;44.516;2023-07-13T00:23:57;14.05;;;6.60;;
34988;SDS011;21192;40.182;44.516;2023-07-13T00:26:23;14.27;;;6.53;;
34988;SDS011;21192;40.182;44.516;2023-07-13T00:28:49;14.85;;;6.30;;
34988;SDS011;21192;40.182;44.516;2023-07-13T00:31:15;13.45;;;5.75;;
34988;SDS011;21192;40.182;44.516;2023-07-13T00:33:41;12.18;;;4.53;;
34988;SDS011;21192;40.182;44.516;2023-07-13T00:36:08;13.98;;;5.85;;
34988;SDS011;21192;40.182;44.516;2023-07-13T00:38:34;13.73;;;4.60;;
34988;SDS011;21192;40.182;44.516;2023-07-13T00:41:01;13.40;;;5.65;;
34988;SDS011;21192;40.182;44.516;2023-07-13T00:43:28;14.38;;;6.15;;
34988;SDS011;21192;40.182;44.516;2023-07-13T00:48:25;12.40;;;4.60;;
34988;SDS011;21192;40.182;44.516;2023-07-13T00:50:55;15.70;;;5.78;;
34988;SDS011;21192;40.182;44.516;2023-07-13T00:53:25;10.50;;;4.55;;
34988;SDS011;21192;40.182;44.516;2023-07-13T00:55:52;12.40;;;4.70;;
34988;SDS011;21192;40.182;44.516;2023-07-13T00:58:20;12.55;;;4.63;;
34988;SDS011;21192;40.182;44.516;2023-07-13T01:00:46;16.48;;;5.00;;
34988;SDS011;21192;40.182;44.516;2023-07-13T01:03:14;19.45;;;4.72;;
34988;SDS011;21192;40.182;44.516;2023-07-13T01:05:40;14.63;;;5.30;;
34988;SDS011;21192;40.182;44.516;2023-07-13T01:08:09;10.05;;;4.97;;
34988;SDS011;21192;40.182;44.516;2023-07-13T01:10:35;12.10;;;5.05;;
34988;SDS011;21192;40.182;44.516;2023-07-13T01:13:05;17.50;;;4.75;;
34988;SDS011;21192;40.182;44.516;2023-07-13T01:15:40;14.15;;;3.95;;
34988;SDS011;21192;40.182;44.516;2023-07-13T01:18:10;15.38;;;4.00;;
34988;SDS011;21192;40.182;44.516;2023-07-13T01:20:38;13.68;;;3.58;;
34988;SDS011;21192;40.182;44.516;2023-07-13T01:23:05;17.45;;;3.83;;
34988;SDS011;21192;40.182;44.516;2023-07-13T01:25:32;12.63;;;4.00;;
34988;SDS011;21192;40.182;44.516;2023-07-13T01:27:59;13.45;;;3.58;;
34988;SDS011;21192;40.182;44.516;2023-07-13T01:30:24;10.52;;;3.35;;
34988;SDS011;21192;40.182;44.516;2023-07-13T01:32:50;9.90;;;3.20;;
34988;SDS011;21192;40.182;44.516;2023-07-13T01:35:16;11.82;;;3.58;;
34988;SDS011;21192;40.182;44.516;2023-07-13T01:37:42;9.93;;;3.28;;
34988;SDS011;21192;40.182;44.516;2023-07-13T01:40:10;8.65;;;2.90;;
34988;SDS011;21192;40.182;44.516;2023-07-13T01:42:37;14.93;;;2.92;;
34988;SDS011;21192;40.182;44.516;2023-07-13T01:45:03;7.00;;;2.50;;
34988;SDS011;21192;40.182;44.516;2023-07-13T01:47:29;9.27;;;3.13;;
34988;SDS011;21192;40.182;44.516;2023-07-13T01:49:56;6.53;;;2.60;;
34988;SDS011;21192;40.182;44.516;2023-07-13T01:52:22;10.23;;;3.05;;
34988;SDS011;21192;40.182;44.516;2023-07-13T01:54:49;12.18;;;3.17;;
34988;SDS011;21192;40.182;44.516;2023-07-13T01:57:15;7.30;;;3.10;;
34988;SDS011;21192;40.182;44.516;2023-07-13T01:59:40;9.35;;;3.35;;
34988;SDS011;21192;40.182;44.516;2023-07-13T02:02:07;10.02;;;3.47;;
34988;SDS011;21192;40.182;44.516;2023-07-13T02:04:36;9.63;;;4.30;;
34988;SDS011;21192;40.182;44.516;2023-07-13T02:07:03;14.30;;;4.05;;
34988;SDS011;21192;40.182;44.516;2023-07-13T02:09:29;14.00;;;5.75;;
34988;SDS011;21192;40.182;44.516;2023-07-13T02:11:54;31.40;;;16.67;;
34988;SDS011;21192;40.182;44.516;2023-07-13T02:14:20;22.85;;;9.57;;
34988;SDS011;21192;40.182;44.516;2023-07-13T02:16:46;19.15;;;7.63;;
34988;SDS011;21192;40.182;44.516;2023-07-13T02:19:13;18.83;;;7.97;;
34988;SDS011;21192;40.182;44.516;2023-07-13T02:21:39;19.02;;;7.57;;
34988;SDS011;21192;40.182;44.516;2023-07-13T02:24:06;18.75;;;7.80;;
34988;SDS011;21192;40.182;44.516;2023-07-13T02:26:31;21.08;;;7.43;;
34988;SDS011;21192;40.182;44.516;2023-07-13T02:28:57;21.30;;;7.25;;
34988;SDS011;21192;40.182;44.516;2023-07-13T02:31:23;15.68;;;6.97;;
34988;SDS011;21192;40.182;44.516;2023-07-13T02:33:49;16.27;;;6.53;;
34988;SDS011;21192;40.182;44.516;2023-07-13T02:36:15;14.75;;;6.80;;
34988;SDS011;21192;40.182;44.516;2023-07-13T02:38:41;20.05;;;6.53;;
34988;SDS011;21192;40.182;44.516;2023-07-13T02:41:07;15.40;;;6.05;;
34988;SDS011;21192;40.182;44.516;2023-07-13T02:43:34;18.58;;;6.72;;
34988;SDS011;21192;40.182;44.516;2023-07-13T02:46:00;19.10;;;6.97;;
34988;SDS011;21192;40.182;44.516;2023-07-13T02:48:32;14.35;;;7.10;;
34988;SDS011;21192;40.182;44.516;2023-07-13T02:50:58;16.75;;;7.05;;
34988;SDS011;21192;40.182;44.516;2023-07-13T02:53:24;16.13;;;6.90;;
34988;SDS011;21192;40.182;44.516;2023-07-13T02:55:50;13.88;;;5.93;;
34988;SDS011;21192;40.182;44.516;2023-07-13T02:58:16;15.88;;;6.65;;
34988;SDS011;21192;40.182;44.516;2023-07-13T03:00:43;15.90;;;6.38;;
34988;SDS011;21192;40.182;44.516;2023-07-13T03:03:11;14.52;;;5.72;;
34988;SDS011;21192;40.182;44.516;2023-07-13T03:05:40;14.00;;;6.45;;
34988;SDS011;21192;40.182;44.516;2023-07-13T03:08:08;16.30;;;6.65;;
34988;SDS011;21192;40.182;44.516;2023-07-13T03:10:35;11.48;;;5.35;;
34988;SDS011;21192;40.182;44.516;2023-07-13T03:13:01;11.57;;;5.28;;
34988;SDS011;21192;40.182;44.516;2023-07-13T03:15:27;10.90;;;4.40;;
34988;SDS011;21192;40.182;44.516;2023-07-13T03:17:52;11.70;;;4.82;;
34988;SDS011;21192;40.182;44.516;2023-07-13T03:20:19;9.45;;;4.85;;
34988;SDS011;21192;40.182;44.516;2023-07-13T03:22:45;10.52;;;5.05;;
34988;SDS011;21192;40.182;44.516;2023-07-13T03:25:11;16.42;;;6.20;;
34988;SDS011;21192;40.182;44.516;2023-07-13T03:27:37;10.32;;;5.57;;
34988;SDS011;21192;40.182;44.516;2023-07-13T03:30:04;17.60;;;6.20;;
34988;SDS011;21192;40.182;44.516;2023-07-13T03:32:30;12.73;;;5.68;;
34988;SDS011;21192;40.182;44.516;2023-07-13T03:34:56;15.63;;;6.60;;
34988;SDS011;21192;40.182;44.516;2023-07-13T03:37:22;15.55;;;6.30;;
34988;SDS011;21192;40.182;44.516;2023-07-13T03:39:48;12.85;;;6.90;;
34988;SDS011;21192;40.182;44.516;2023-07-13T03:42:15;11.23;;;6.68;;
34988;SDS011;21192;40.182;44.516;2023-07-13T03:44:41;11.57;;;6.18;;
34988;SDS011;21192;40.182;44.516;2023-07-13T03:47:07;15.60;;;6.20;;
34988;SDS011;21192;40.182;44.516;2023-07-13T03:49:34;14.98;;;7.03;;
34988;SDS011;21192;40.182;44.516;2023-07-13T03:52:00;13.60;;;6.80;;
34988;SDS011;21192;40.182;44.516;2023-07-13T03:54:26;16.38;;;7.38;;
34988;SDS011;21192;40.182;44.516;2023-07-13T03:56:52;12.80;;;6.75;;
34988;SDS011;21192;40.182;44.516;2023-07-13T03:59:17;14.88;;;6.55;;
34988;SDS011;21192;40.182;44.516;2023-07-13T04:01:43;16.13;;;6.20;;
34988;SDS011;21192;40.182;44.516;2023-07-13T04:04:10;13.30;;;6.63;;
34988;SDS011;21192;40.182;44.516;2023-07-13T04:06:37;10.68;;;5.72;;
34988;SDS011;21192;40.182;44.516;2023-07-13T04:09:03;11.75;;;6.30;;
34988;SDS011;21192;40.182;44.516;2023-07-13T04:11:33;12.30;;;5.40;;
34988;SDS011;21192;40.182;44.516;2023-07-13T04:14:01;12.88;;;5.05;;
34988;SDS011;21192;40.182;44.516;2023-07-13T04:16:28;12.55;;;5.78;;
34988;SDS011;21192;40.182;44.516;2023-07-13T04:18:54;13.52;;;5.03;;
34988;SDS011;21192;40.182;44.516;2023-07-13T04:21:24;9.57;;;5.10;;
34988;SDS011;21192;40.182;44.516;2023-07-13T04:23:52;13.75;;;4.85;;
34988;SDS011;21192;40.182;44.516;2023-07-13T04:26:18;12.43;;;5.18;;
34988;SDS011;21192;40.182;44.516;2023-07-13T04:28:46;14.95;;;4.90;;
34988;SDS011;21192;40.182;44.516;2023-07-13T04:31:12;9.32;;;4.82;;
34988;SDS011;21192;40.182;44.516;2023-07-13T04:33:38;11.48;;;4.70;;
34988;SDS011;21192;40.182;44.516;2023-07-13T04:36:04;10.32;;;4.57;;
34988;SDS011;21192;40.182;44.516;2023-07-13T04:38:31;12.00;;;4.80;;
34988;SDS011;21192;40.182;44.516;2023-07-13T04:41:01;9.15;;;4.32;;
34988;SDS011;21192;40.182;44.516;2023-07-13T04:43:28;12.38;;;4.50;;
34988;SDS011;21192;40.182;44.516;2023-07-13T04:45:55;10.38;;;4.30;;
34988;SDS011;21192;40.182;44.516;2023-07-13T04:48:21;12.18;;;4.38;;
34988;SDS011;21192;40.182;44.516;2023-07-13T04:50:47;9.13;;;3.88;;
34988;SDS011;21192;40.182;44.516;2023-07-13T04:53:19;11.05;;;3.97;;
34988;SDS011;21192;40.182;44.516;2023-07-13T04:55:45;12.85;;;4.45;;
34988;SDS011;21192;40.182;44.516;2023-07-13T04:58:12;14.38;;;4.38;;
34988;SDS011;21192;40.182;44.516;2023-07-13T05:00:38;19.92;;;5.70;;
34988;SDS011;21192;40.182;44.516;2023-07-13T05:03:04;18.08;;;6.82;;
34988;SDS011;21192;40.182;44.516;2023-07-13T05:05:30;16.83;;;6.63;;
34988;SDS011;21192;40.182;44.516;2023-07-13T05:07:56;17.20;;;7.25;;
34988;SDS011;21192;40.182;44.516;2023-07-13T05:10:22;27.00;;;9.10;;
34988;SDS011;21192;40.182;44.516;2023-07-13T05:12:48;25.60;;;8.73;;
34988;SDS011;21192;40.182;44.516;2023-07-13T05:15:14;29.17;;;8.82;;
34988;SDS011;21192;40.182;44.516;2023-07-13T05:17:40;27.05;;;8.68;;
34988;SDS011;21192;40.182;44.516;2023-07-13T05:20:07;21.00;;;8.95;;
34988;SDS011;21192;40.182;44.516;2023-07-13T05:22:34;21.77;;;9.38;;
34988;SDS011;21192;40.182;44.516;2023-07-13T05:25:00;21.65;;;10.57;;
34988;SDS011;21192;40.182;44.516;2023-07-13T05:27:29;30.17;;;9.73;;
34988;SDS011;21192;40.182;44.516;2023-07-13T05:29:54;24.25;;;9.15;;
34988;SDS011;21192;40.182;44.516;2023-07-13T05:32:20;24.75;;;8.70;;
34988;SDS011;21192;40.182;44.516;2023-07-13T05:34:46;23.13;;;7.82;;
34988;SDS011;21192;40.182;44.516;2023-07-13T05:37:12;16.48;;;7.50;;
34988;SDS011;21192;40.182;44.516;2023-07-13T05:39:38;22.77;;;7.57;;
34988;SDS011;21192;40.182;44.516;2023-07-13T05:42:04;24.35;;;7.63;;
34988;SDS011;21192;40.182;44.516;2023-07-13T05:44:30;23.92;;;7.75;;
34988;SDS011;21192;40.182;44.516;2023-07-13T05:46:56;22.88;;;6.43;;
34988;SDS011;21192;40.182;44.516;2023-07-13T05:49:22;18.42;;;6.75;;
34988;SDS011;21192;40.182;44.516;2023-07-13T05:51:48;27.95;;;7.05;;
34988;SDS011;21192;40.182;44.516;2023-07-13T05:54:14;19.85;;;6.63;;
34988;SDS011;21192;40.182;44.516;2023-07-13T05:56:40;15.50;;;6.18;;
34988;SDS011;21192;40.182;44.516;2023-07-13T05:59:06;20.10;;;6.68;;
34988;SDS011;21192;40.182;44.516;2023-07-13T06:01:32;19.38;;;7.20;;
34988;SDS011;21192;40.182;44.516;2023-07-13T06:03:58;20.80;;;6.53;;
34988;SDS011;21192;40.182;44.516;2023-07-13T06:06:24;23.50;;;6.22;;
34988;SDS011;21192;40.182;44.516;2023-07-13T06:08:50;14.40;;;7.05;;
34988;SDS011;21192;40.182;44.516;2023-07-13T06:11:17;15.18;;;6.60;;
34988;SDS011;21192;40.182;44.516;2023-07-13T06:13:44;13.60;;;6.20;;
34988;SDS011;21192;40.182;44.516;2023-07-13T06:16:10;23.27;;;8.45;;
34988;SDS011;21192;40.182;44.516;2023-07-13T06:18:36;18.45;;;7.13;;
34988;SDS011;21192;40.182;44.516;2023-07-13T06:23:35;34.55;;;8.23;;
34988;SDS011;21192;40.182;44.516;2023-07-13T06:26:02;14.73;;;6.63;;
34988;SDS011;21192;40.182;44.516;2023-07-13T06:28:29;53.65;;;9.52;;
34988;SDS011;21192;40.182;44.516;2023-07-13T06:30:56;26.33;;;8.63;;
34988;SDS011;21192;40.182;44.516;2023-07-13T06:33:23;38.63;;;9.80;;
34988;SDS011;21192;40.182;44.516;2023-07-13T06:35:49;28.88;;;9.50;;
34988;SDS011;21192;40.182;44.516;2023-07-13T06:38:15;22.85;;;7.47;;
34988;SDS011;21192;40.182;44.516;2023-07-13T06:40:41;16.67;;;7.05;;
34988;SDS011;21192;40.182;44.516;2023-07-13T06:43:07;22.90;;;10.90;;
34988;SDS011;21192;40.182;44.516;2023-07-13T06:45:36;24.98;;;7.40;;
34988;SDS011;21192;40.182;44.516;2023-07-13T06:48:07;23.90;;;7.70;;
34988;SDS011;21192;40.182;44.516;2023-07-13T06:50:33;19.02;;;7.38;;
34988;SDS011;21192;40.182;44.516;2023-07-13T06:52:59;22.58;;;7.90;;
34988;SDS011;21192;40.182;44.516;2023-07-13T06:55:25;23.23;;;8.23;;
34988;SDS011;21192;40.182;44.516;2023-07-13T06:57:51;20.88;;;7.57;;
34988;SDS011;21192;40.182;44.516;2023-07-13T07:00:17;23.65;;;8.00;;
34988;SDS011;21192;40.182;44.516;2023-07-13T07:02:43;25.45;;;8.23;;
34988;SDS011;21192;40.182;44.516;2023-07-13T07:05:09;20.30;;;8.38;;
34988;SDS011;21192;40.182;44.516;2023-07-13T07:07:35;20.65;;;6.55;;
34988;SDS011;21192;40.182;44.516;2023-07-13T07:10:01;25.45;;;7.93;;
34988;SDS011;21192;40.182;44.516;2023-07-13T07:12:28;19.48;;;7.82;;
34988;SDS011;21192;40.182;44.516;2023-07-13T07:14:54;37.90;;;10.45;;
34988;SDS011;21192;40.182;44.516;2023-07-13T07:17:20;19.05;;;7.10;;
34988;SDS011;21192;40.182;44.516;2023-07-13T07:19:45;28.20;;;7.47;;
34988;SDS011;21192;40.182;44.516;2023-07-13T07:22:11;29.33;;;8.32;;
34988;SDS011;21192;40.182;44.516;2023-07-13T07:24:37;25.25;;;8.68;;
34988;SDS011;21192;40.182;44.516;2023-07-13T07:27:03;18.25;;;5.82;;
34988;SDS011;21192;40.182;44.516;2023-07-13T07:29:29;15.80;;;6.32;;
34988;SDS011;21192;40.182;44.516;2023-07-13T07:31:55;24.13;;;6.93;;
34988;SDS011;21192;40.182;44.516;2023-07-13T07:34:21;16.90;;;6.03;;
34988;SDS011;21192;40.182;44.516;2023-07-13T07:36:46;24.63;;;7.68;;
34988;SDS011;21192;40.182;44.516;2023-07-13T07:39:12;20.83;;;6.70;;
34988;SDS011;21192;40.182;44.516;2023-07-13T07:41:38;18.77;;;7.40;;
34988;SDS011;21192;40.182;44.516;2023-07-13T07:44:04;23.90;;;7.63;;
34988;SDS011;21192;40.182;44.516;2023-07-13T07:46:32;21.48;;;6.63;;
34988;SDS011;21192;40.182;44.516;2023-07-13T07:48:58;22.65;;;6.20;;
34988;SDS011;21192;40.182;44.516;2023-07-13T07:51:24;25.15;;;7.97;;
34988;SDS011;21192;40.182;44.516;2023-07-13T07:53:49;18.30;;;6.15;;
34988;SDS011;21192;40.182;44.516;2023-07-13T07:56:15;17.55;;;5.65;;
34988;SDS011;21192;40.182;44.516;2023-07-13T07:58:41;14.65;;;5.35;;
34988;SDS011;21192;40.182;44.516;2023-07-13T08:01:08;20.75;;;6.38;;
34988;SDS011;21192;40.182;44.516;2023-07-13T08:03:34;23.30;;;6.90;;
34988;SDS011;21192;40.182;44.516;2023-07-13T08:06:00;31.17;;;7.15;;
34988;SDS011;21192;40.182;44.516;2023-07-13T08:08:26;18.58;;;6.00;;
34988;SDS011;21192;40.182;44.516;2023-07-13T08:10:52;14.95;;;6.90;;
34988;SDS011;21192;40.182;44.516;2023-07-13T08:13:18;15.60;;;6.47;;
34988;SDS011;21192;40.182;44.516;2023-07-13T08:15:44;27.63;;;8.27;;
34988;SDS011;21192;40.182;44.516;2023-07-13T08:18:11;20.73;;;6.35;;
34988;SDS011;21192;40.182;44.516;2023-07-13T08:20:39;36.00;;;8.48;;
34988;SDS011;21192;40.182;44.516;2023-07-13T08:23:06;15.98;;;6.07;;
34988;SDS011;21192;40.182;44.516;2023-07-13T08:25:34;31.85;;;8.05;;
34988;SDS011;21192;40.182;44.516;2023-07-13T08:28:02;29.83;;;7.75;;
34988;SDS011;21192;40.182;44.516;2023-07-13T08:30:28;25.80;;;7.72;;
34988;SDS011;21192;40.182;44.516;2023-07-13T08:32:54;14.73;;;5.55;;
34988;SDS011;21192;40.182;44.516;2023-07-13T08:35:20;26.45;;;7.15;;
34988;SDS011;21192;40.182;44.516;2023-07-13T08:37:46;14.65;;;5.15;;
34988;SDS011;21192;40.182;44.516;2023-07-13T08:40:12;21.73;;;6.40;;
34988;SDS011;21192;40.182;44.516;2023-07-13T08:45:12;16.17;;;5.30;;
34988;SDS011;21192;40.182;44.516;2023-07-13T08:47:50;20.27;;;12.35;;
34988;SDS011;21192;40.182;44.516;2023-07-13T08:50:19;11.80;;;5.22;;
34988;SDS011;21192;40.182;44.516;2023-07-13T08:52:50;10.80;;;4.47;;
34988;SDS011;21192;40.182;44.516;2023-07-13T08:55:18;23.48;;;7.53;;
34988;SDS011;21192;40.182;44.516;2023-07-13T08:57:51;22.10;;;6.95;;
34988;SDS011;21192;40.182;44.516;2023-07-13T09:00:25;58.17;;;10.02;;
34988;SDS011;21192;40.182;44.516;2023-07-13T09:03:02;20.55;;;6.78;;
34988;SDS011;21192;40.182;44.516;2023-07-13T09:05:31;20.98;;;6.95;;
34988;SDS011;21192;40.182;44.516;2023-07-13T09:11:03;26.15;;;7.38;;
34988;SDS011;21192;40.182;44.516;2023-07-13T09:14:05;22.77;;;6.80;;
34988;SDS011;21192;40.182;44.516;2023-07-13T09:16:44;12.82;;;5.57;;
34988;SDS011;21192;40.182;44.516;2023-07-13T09:19:20;14.68;;;6.22;;
34988;SDS011;21192;40.182;44.516;2023-07-13T09:21:51;15.98;;;7.85;;
34988;SDS011;21192;40.182;44.516;2023-07-13T09:27:39;18.80;;;6.43;;
34988;SDS011;21192;40.182;44.516;2023-07-13T09:32:39;17.65;;;6.75;;
34988;SDS011;21192;40.182;44.516;2023-07-13T09:35:11;21.67;;;8.70;;
34988;SDS011;21192;40.182;44.516;2023-07-13T09:37:38;29.20;;;7.60;;
34988;SDS011;21192;40.182;44.516;2023-07-13T09:40:08;29.70;;;7.72;;
34988;SDS011;21192;40.182;44.516;2023-07-13T09:42:45;31.40;;;7.85;;
34988;SDS011;21192;40.182;44.516;2023-07-13T09:45:12;32.55;;;9.18;;
34988;SDS011;21192;40.182;44.516;2023-07-13T09:47:53;27.50;;;8.40;;
34988;SDS011;21192;40.182;44.516;2023-07-13T09:50:44;22.08;;;6.97;;
34988;SDS011;21192;40.182;44.516;2023-07-13T09:53:11;22.88;;;7.05;;
34988;SDS011;21192;40.182;44.516;2023-07-13T09:55:42;20.48;;;8.20;;
34988;SDS011;21192;40.182;44.516;2023-07-13T09:58:21;20.25;;;6.65;;
34988;SDS011;21192;40.182;44.516;2023-07-13T10:01:01;20.10;;;6.70;;
34988;SDS011;21192;40.182;44.516;2023-07-13T10:03:30;25.00;;;8.48;;
34988;SDS011;21192;40.182;44.516;2023-07-13T10:06:12;20.08;;;6.40;;
34988;SDS011;21192;40.182;44.516;2023-07-13T10:08:46;12.95;;;6.43;;
34988;SDS011;21192;40.182;44.516;2023-07-13T10:11:18;18.42;;;5.75;;
34988;SDS011;21192;40.182;44.516;2023-07-13T10:13:48;22.48;;;6.57;;
34988;SDS011;21192;40.182;44.516;2023-07-13T10:16:21;16.17;;;5.63;;
34988;SDS011;21192;40.182;44.516;2023-07-13T10:18:51;19.33;;;5.40;;
34988;SDS011;21192;40.182;44.516;2023-07-13T10:21:22;18.55;;;7.75;;
34988;SDS011;21192;40.182;44.516;2023-07-13T10:23:56;25.92;;;7.57;;
34988;SDS011;21192;40.182;44.516;2023-07-13T10:26:56;28.60;;;7.70;;
34988;SDS011;21192;40.182;44.516;2023-07-13T10:29:47;29.75;;;7.90;;
34988;SDS011;21192;40.182;44.516;2023-07-13T10:32:19;41.60;;;10.18;;
34988;SDS011;21192;40.182;44.516;2023-07-13T10:34:48;18.35;;;7.63;;
34988;SDS011;21192;40.182;44.516;2023-07-13T10:37:26;27.02;;;9.23;;
34988;SDS011;21192;40.182;44.516;2023-07-13T10:39:56;19.27;;;7.30;;
34988;SDS011;21192;40.182;44.516;2023-07-13T10:42:35;20.80;;;7.15;;
34988;SDS011;21192;40.182;44.516;2023-07-13T10:45:12;34.20;;;7.50;;
34988;SDS011;21192;40.182;44.516;2023-07-13T10:47:43;27.20;;;6.78;;
34988;SDS011;21192;40.182;44.516;2023-07-13T10:50:14;36.05;;;7.72;;
34988;SDS011;21192;40.182;44.516;2023-07-13T10:52:48;27.35;;;6.55;;
34988;SDS011;21192;40.182;44.516;2023-07-13T10:55:36;21.25;;;6.60;;
34988;SDS011;21192;40.182;44.516;2023-07-13T10:58:14;39.03;;;9.80;;
34988;SDS011;21192;40.182;44.516;2023-07-13T11:03:32;24.38;;;7.28;;
34988;SDS011;21192;40.182;44.516;2023-07-13T11:08:59;11.32;;;4.85;;
34988;SDS011;21192;40.182;44.516;2023-07-13T11:11:43;14.40;;;6.65;;
34988;SDS011;21192;40.182;44.516;2023-07-13T11:17:45;38.88;;;10.23;;
34988;SDS011;21192;40.182;44.516;2023-07-13T11:22:51;18.23;;;7.60;;
34988;SDS011;21192;40.182;44.516;2023-07-13T11:25:32;46.17;;;10.80;;
34988;SDS011;21192;40.182;44.516;2023-07-13T11:33:43;12.75;;;5.13;;
34988;SDS011;21192;40.182;44.516;2023-07-13T11:36:16;21.58;;;7.03;;
34988;SDS011;21192;40.182;44.516;2023-07-13T11:38:51;39.55;;;9.43;;
34988;SDS011;21192;40.182;44.516;2023-07-13T11:41:26;27.27;;;8.38;;
34988;SDS011;21192;40.182;44.516;2023-07-13T11:44:01;28.92;;;8.27;;
34988;SDS011;21192;40.182;44.516;2023-07-13T11:46:31;28.65;;;9.13;;
34988;SDS011;21192;40.182;44.516;2023-07-13T11:48:57;22.77;;;8.70;;
34988;SDS011;21192;40.182;44.516;2023-07-13T11:51:30;28.50;;;8.07;;
34988;SDS011;21192;40.182;44.516;2023-07-13T11:54:00;35.28;;;12.18;;
34988;SDS011;21192;40.182;44.516;2023-07-13T11:56:28;35.13;;;12.55;;
34988;SDS011;21192;40.182;44.516;2023-07-13T11:58:56;25.27;;;9.50;;
34988;SDS011;21192;40.182;44.516;2023-07-13T12:01:24;24.15;;;8.07;;
34988;SDS011;21192;40.182;44.516;2023-07-13T12:03:57;21.80;;;7.55;;
34988;SDS011;21192;40.182;44.516;2023-07-13T12:09:03;33.42;;;7.20;;
34988;SDS011;21192;40.182;44.516;2023-07-13T12:11:39;60.25;;;10.52;;
34988;SDS011;21192;40.182;44.516;2023-07-13T12:14:10;53.65;;;10.57;;
34988;SDS011;21192;40.182;44.516;2023-07-13T12:16:40;40.00;;;9.07;;
34988;SDS011;21192;40.182;44.516;2023-07-13T12:19:09;37.72;;;9.73;;
34988;SDS011;21192;40.182;44.516;2023-07-13T12:21:48;43.38;;;9.70;;
34988;SDS011;21192;40.182;44.516;2023-07-13T12:24:16;64.97;;;11.05;;
34988;SDS011;21192;40.182;44.516;2023-07-13T12:26:43;45.38;;;10.27;;
34988;SDS011;21192;40.182;44.516;2023-07-13T12:29:15;48.78;;;10.68;;
34988;SDS011;21192;40.182;44.516;2023-07-13T12:31:43;37.65;;;9.27;;
34988;SDS011;21192;40.182;44.516;2023-07-13T12:34:12;20.25;;;7.68;;
34988;SDS011;21192;40.182;44.516;2023-07-13T12:36:47;23.38;;;5.75;;
34988;SDS011;21192;40.182;44.516;2023-07-13T12:39:23;16.60;;;5.50;;
34988;SDS011;21192;40.182;44.516;2023-07-13T12:41:52;43.22;;;8.55;;
34988;SDS011;21192;40.182;44.516;2023-07-13T12:44:30;29.05;;;7.20;;
34988;SDS011;21192;40.182;44.516;2023-07-13T12:47:03;38.75;;;10.52;;
34988;SDS011;21192;40.182;44.516;2023-07-13T12:49:39;46.67;;;9.65;;
34988;SDS011;21192;40.182;44.516;2023-07-13T12:52:15;23.40;;;6.13;;
34988;SDS011;21192;40.182;44.516;2023-07-13T12:54:52;25.85;;;7.25;;
34988;SDS011;21192;40.182;44.516;2023-07-13T12:57:21;35.72;;;8.73;;
34988;SDS011;21192;40.182;44.516;2023-07-13T12:59:46;50.30;;;9.32;;
34988;SDS011;21192;40.182;44.516;2023-07-13T13:02:23;63.53;;;10.88;;
34988;SDS011;21192;40.182;44.516;2023-07-13T13:04:55;28.60;;;8.63;;
34988;SDS011;21192;40.182;44.516;2023-07-13T13:07:22;15.60;;;5.22;;
34988;SDS011;21192;40.182;44.516;2023-07-13T13:09:49;17.58;;;5.07;;
34988;SDS011;21192;40.182;44.516;2023-07-13T13:12:15;33.65;;;8.40;;
34988;SDS011;21192;40.182;44.516;2023-07-13T13:14:42;48.72;;;10.25;;
34988;SDS011;21192;40.182;44.516;2023-07-13T13:17:16;34.33;;;7.47;;
34988;SDS011;21192;40.182;44.516;2023-07-13T13:19:50;24.35;;;7.72;;
34988;SDS011;21192;40.182;44.516;2023-07-13T13:22:19;32.00;;;8.25;;
34988;SDS011;21192;40.182;44.516;2023-07-13T13:24:45;33.03;;;9.02;;
34988;SDS011;21192;40.182;44.516;2023-07-13T13:27:15;20.33;;;7.82;;
34988;SDS011;21192;40.182;44.516;2023-07-13T13:29:43;30.65;;;8.45;;
34988;SDS011;21192;40.182;44.516;2023-07-13T13:32:13;29.80;;;9.30;;
34988;SDS011;21192;40.182;44.516;2023-07-13T13:34:40;42.95;;;9.85;;
34988;SDS011;21192;40.182;44.516;2023-07-13T13:37:17;28.08;;;8.13;;
34988;SDS011;21192;40.182;44.516;2023-07-13T13:39:45;20.27;;;6.47;;
34988;SDS011;21192;40.182;44.516;2023-07-13T13:42:12;23.73;;;6.88;;
34988;SDS011;21192;40.182;44.516;2023-07-13T13:44:38;26.98;;;6.93;;
34988;SDS011;21192;40.182;44.516;2023-07-13T13:47:29;19.40;;;7.30;;
34988;SDS011;21192;40.182;44.516;2023-07-13T13:49:56;18.85;;;6.55;;
34988;SDS011;21192;40.182;44.516;2023-07-13T13:52:23;19.92;;;7.80;;
34988;SDS011;21192;40.182;44.516;2023-07-13T13:54:50;23.30;;;8.70;;
34988;SDS011;21192;40.182;44.516;2023-07-13T13:57:21;21.02;;;8.70;;
34988;SDS011;21192;40.182;44.516;2023-07-13T13:59:49;24.08;;;8.77;;
34988;SDS011;21192;40.182;44.516;2023-07-13T14:02:22;22.35;;;8.07;;
34988;SDS011;21192;40.182;44.516;2023-07-13T14:04:58;20.67;;;7.05;;
34988;SDS011;21192;40.182;44.516;2023-07-13T14:07:26;19.65;;;7.65;;
34988;SDS011;21192;40.182;44.516;2023-07-13T14:09:53;20.52;;;8.63;;
34988;SDS011;21192;40.182;44.516;2023-07-13T14:12:21;20.48;;;7.93;;
34988;SDS011;21192;40.182;44.516;2023-07-13T14:14:47;24.85;;;7.93;;
34988;SDS011;21192;40.182;44.516;2023-07-13T14:17:18;24.25;;;8.70;;
34988;SDS011;21192;40.182;44.516;2023-07-13T14:19:47;14.15;;;6.93;;
34988;SDS011;21192;40.182;44.516;2023-07-13T14:22:21;21.25;;;7.63;;
34988;SDS011;21192;40.182;44.516;2023-07-13T14:24:49;16.52;;;6.60;;
34988;SDS011;21192;40.182;44.516;2023-07-13T14:27:16;20.92;;;7.25;;
34988;SDS011;21192;40.182;44.516;2023-07-13T14:29:42;19.10;;;6.10;;
34988;SDS011;21192;40.182;44.516;2023-07-13T14:32:09;14.98;;;6.60;;
34988;SDS011;21192;40.182;44.516;2023-07-13T14:34:36;16.50;;;7.28;;
34988;SDS011;21192;40.182;44.516;2023-07-13T14:37:02;26.98;;;9.68;;
34988;SDS011;21192;40.182;44.516;2023-07-13T14:39:29;27.40;;;7.35;;
34988;SDS011;21192;40.182;44.516;2023-07-13T14:41:56;20.25;;;7.68;;
34988;SDS011;21192;40.182;44.516;2023-07-13T14:44:27;14.70;;;6.60;;
34988;SDS011;21192;40.182;44.516;2023-07-13T14:46:54;18.17;;;8.02;;
34988;SDS011;21192;40.182;44.516;2023-07-13T14:51:57;8.52;;;4.72;;
34988;SDS011;21192;40.182;44.516;2023-07-13T14:54:25;13.40;;;5.65;;
34988;SDS011;21192;40.182;44.516;2023-07-13T14:56:51;14.10;;;8.48;;
34988;SDS011;21192;40.182;44.516;2023-07-13T14:59:17;24.27;;;10.00;;
34988;SDS011;21192;40.182;44.516;2023-07-13T15:01:46;12.02;;;6.38;;
34988;SDS011;21192;40.182;44.516;2023-07-13T15:04:14;13.35;;;5.07;;
34988;SDS011;21192;40.182;44.516;2023-07-13T15:06:58;9.55;;;5.20;;
34988;SDS011;21192;40.182;44.516;2023-07-13T15:09:27;11.55;;;4.80;;